Time;durP1;ratioP1;P1;durP2;ratioP2;P2;SDS_P1;SDS_P2;PMS_P1;PMS_P2;Temp;Humidity;BMP_temperature;BMP_pressure;BME280_temperature;BME280_humidity;BME280_pressure;Samples;Min_cycle;Max_cycle;Signal;HPM_P1;HPM_P2
2022/10/03 00:02:29;;;;;;;0.10;0.10;;;13.30;99.90;;;;;;5089438;28;20203;-50
2022/10/03 00:05:18;;;;;;;0.00;0.00;;;13.20;99.90;;;;;;5090803;28;20200;-49
2022/10/03 00:08:04;;;;;;;0.00;0.00;;;13.20;99.90;;;;;;5081077;28;20204;-49
2022/10/03 00:10:46;;;;;;;0.00;0.00;;;13.20;99.90;;;;;;5091088;28;20220;-48
2022/10/03 00:13:24;;;;;;;0.00;0.00;;;13.20;99.90;;;;;;5079990;28;20216;-48
2022/10/03 00:16:02;;;;;;;0.30;0.10;;;13.20;99.90;;;;;;5083230;28;20228;-50
2022/10/03 00:18:43;;;;;;;0.10;0.10;;;13.20;99.90;;;;;;5086852;28;20197;-48
2022/10/03 00:21:23;;;;;;;0.00;0.00;;;13.20;99.90;;;;;;5088665;28;20669;-48
2022/10/03 00:23:58;;;;;;;0.10;0.10;;;13.10;99.90;;;;;;5088153;28;20197;-48
2022/10/03 00:26:36;;;;;;;0.40;0.30;;;13.10;99.90;;;;;;5081105;28;20192;-49
2022/10/03 00:29:19;;;;;;;0.30;0.30;;;13.20;99.90;;;;;;5085941;28;20636;-49
2022/10/03 00:31:56;;;;;;;0.00;0.00;;;13.20;99.90;;;;;;5090183;28;20242;-49
2022/10/03 00:34:37;;;;;;;1.30;0.57;;;13.20;99.90;;;;;;5090585;28;20232;-49
2022/10/03 00:37:24;;;;;;;0.23;0.10;;;13.20;99.90;;;;;;5084276;28;20191;-49
2022/10/03 00:40:28;;;;;;;0.00;0.00;;;13.10;99.90;;;;;;5091566;28;20223;-49
2022/10/03 00:43:18;;;;;;;0.50;0.10;;;13.10;99.90;;;;;;5055070;28;20208;-47
2022/10/03 00:46:01;;;;;;;0.03;0.00;;;13.10;99.90;;;;;;5090319;28;20203;-48
2022/10/03 00:49:19;;;;;;;0.03;0.00;;;13.00;99.90;;;;;;5092745;28;20207;-49
2022/10/03 00:52:02;;;;;;;0.00;0.00;;;13.00;99.90;;;;;;5025833;28;20222;-49
2022/10/03 00:54:44;;;;;;;0.00;0.00;;;12.90;99.90;;;;;;5027847;28;20221;-49
2022/10/03 00:57:32;;;;;;;0.00;0.00;;;12.90;99.90;;;;;;5072550;28;20204;-47
2022/10/03 01:00:14;;;;;;;0.00;0.00;;;12.90;99.90;;;;;;5088341;28;20231;-48
2022/10/03 01:02:55;;;;;;;0.10;0.10;;;13.00;99.90;;;;;;5087402;28;20339;-49
2022/10/03 01:05:37;;;;;;;0.00;0.00;;;13.00;99.90;;;;;;5086497;28;20631;-48
2022/10/03 01:08:37;;;;;;;0.00;0.00;;;12.90;99.90;;;;;;5092307;28;20593;-48
2022/10/03 01:11:17;;;;;;;0.10;0.10;;;12.90;99.90;;;;;;5078919;28;20208;-50
2022/10/03 01:13:55;;;;;;;0.63;0.00;;;12.90;99.90;;;;;;5085309;28;20203;-48
2022/10/03 01:16:37;;;;;;;0.00;0.00;;;12.90;99.90;;;;;;5084995;28;20242;-48
2022/10/03 01:19:20;;;;;;;0.00;0.00;;;12.90;99.90;;;;;;5084221;28;20216;-49
2022/10/03 01:22:00;;;;;;;0.00;0.00;;;12.90;99.90;;;;;;5087158;28;20272;-49
2022/10/03 01:24:53;;;;;;;0.00;0.00;;;12.90;99.90;;;;;;5086521;28;20201;-49
2022/10/03 01:27:35;;;;;;;0.00;0.00;;;12.90;99.90;;;;;;5071816;28;20255;-49
2022/10/03 01:30:22;;;;;;;0.10;0.03;;;13.00;99.90;;;;;;5077401;28;20212;-47
2022/10/03 01:32:57;;;;;;;0.00;0.00;;;13.00;99.90;;;;;;5082119;28;20211;-50
2022/10/03 01:35:34;;;;;;;0.10;0.10;;;13.00;99.90;;;;;;5089495;28;20200;-49
2022/10/03 01:38:14;;;;;;;0.50;0.20;;;13.00;99.90;;;;;;5078096;28;20696;-48
2022/10/03 01:40:48;;;;;;;0.10;0.10;;;13.00;99.90;;;;;;5090555;28;20314;-48
2022/10/03 01:43:19;;;;;;;0.10;0.10;;;13.10;99.90;;;;;;5089845;28;20215;-48
2022/10/03 01:46:01;;;;;;;0.30;0.30;;;13.10;99.90;;;;;;5089619;28;20287;-49
2022/10/03 01:48:36;;;;;;;26.53;17.33;;;13.10;99.90;;;;;;5089728;28;20204;-49
2022/10/03 01:51:10;;;;;;;29.03;19.77;;;13.10;99.90;;;;;;5078816;28;20219;-48
2022/10/03 01:54:04;;;;;;;2.20;2.03;;;13.10;99.90;;;;;;5091275;28;20231;-49
2022/10/03 01:56:39;;;;;;;0.97;0.30;;;13.00;99.90;;;;;;5090401;28;20200;-49
2022/10/03 01:59:13;;;;;;;0.97;0.00;;;13.00;99.90;;;;;;5074913;28;20230;-49
2022/10/03 02:01:48;;;;;;;3.60;3.40;;;13.00;99.90;;;;;;5086005;28;20239;-48
2022/10/03 02:04:25;;;;;;;2.13;2.03;;;12.90;99.90;;;;;;5079165;28;20203;-48
2022/10/03 02:06:57;;;;;;;2.07;1.97;;;12.90;99.90;;;;;;5084061;28;20627;-49
2022/10/03 02:09:33;;;;;;;1.13;1.13;;;12.90;99.90;;;;;;5086181;28;20217;-49
2022/10/03 02:12:09;;;;;;;0.70;0.70;;;12.90;99.90;;;;;;5091225;28;20715;-50
2022/10/03 02:14:48;;;;;;;3.13;0.43;;;12.90;99.90;;;;;;5086381;28;20200;-48
2022/10/03 02:17:27;;;;;;;0.10;0.10;;;12.90;99.90;;;;;;5076475;28;20192;-48
2022/10/03 02:20:01;;;;;;;0.00;0.00;;;12.90;99.90;;;;;;5085724;28;20315;-51
2022/10/03 02:22:34;;;;;;;0.10;0.00;;;12.90;99.90;;;;;;5077844;28;20196;-48
2022/10/03 02:25:14;;;;;;;0.00;0.00;;;12.90;99.90;;;;;;5075308;28;20200;-48
2022/10/03 02:28:13;;;;;;;1.17;0.40;;;12.90;99.90;;;;;;5091473;28;20207;-49
2022/10/03 02:30:56;;;;;;;0.30;0.30;;;12.80;99.90;;;;;;5060332;28;20270;-49
2022/10/03 02:34:15;;;;;;;0.63;0.30;;;13.00;99.90;;;;;;5088827;28;20216;-48
2022/10/03 02:37:15;;;;;;;2.40;0.33;;;13.00;99.90;;;;;;5079162;28;20286;-48
2022/10/03 02:40:16;;;;;;;0.43;0.30;;;12.90;99.90;;;;;;5078683;28;20223;-48
2022/10/03 02:43:31;;;;;;;0.37;0.37;;;12.80;99.90;;;;;;5095206;28;20285;-49
2022/10/03 02:46:35;;;;;;;1.00;0.63;;;12.80;99.90;;;;;;5086340;28;20208;-49
2022/10/03 02:49:23;;;;;;;1.67;0.97;;;12.70;99.90;;;;;;5086792;28;20216;-49
2022/10/03 02:52:21;;;;;;;0.77;0.77;;;12.70;99.90;;;;;;5090479;28;20589;-49
2022/10/03 02:55:05;;;;;;;1.30;0.80;;;12.60;99.90;;;;;;5081392;28;20290;-48
2022/10/03 02:58:04;;;;;;;2.13;0.50;;;12.60;99.90;;;;;;5094826;28;20195;-49
2022/10/03 03:00:54;;;;;;;0.50;0.50;;;12.60;99.90;;;;;;5093374;28;20217;-50
2022/10/03 03:03:38;;;;;;;1.50;0.90;;;12.50;99.90;;;;;;5093861;28;20196;-48
2022/10/03 03:06:42;;;;;;;0.60;0.60;;;12.60;99.90;;;;;;5077689;28;20197;-48
2022/10/03 03:09:34;;;;;;;0.80;0.50;;;12.60;99.90;;;;;;5085420;28;20226;-49
2022/10/03 03:12:38;;;;;;;2.83;0.67;;;12.60;99.90;;;;;;5051345;28;20262;-48
2022/10/03 03:15:53;;;;;;;0.80;0.80;;;12.60;99.90;;;;;;5075618;28;20610;-48
2022/10/03 03:18:31;;;;;;;0.60;0.60;;;12.50;99.90;;;;;;5089710;28;20204;-49
2022/10/03 03:21:13;;;;;;;0.50;0.50;;;12.60;99.90;;;;;;5089737;28;20200;-48
2022/10/03 03:24:13;;;;;;;1.50;0.80;;;12.60;99.90;;;;;;5094389;28;20215;-49
2022/10/03 03:27:08;;;;;;;1.27;1.03;;;12.50;99.90;;;;;;5084923;28;20209;-49
2022/10/03 03:29:46;;;;;;;2.40;1.40;;;12.50;99.90;;;;;;5069195;28;20224;-48
2022/10/03 03:32:27;;;;;;;0.60;0.60;;;12.40;99.90;;;;;;5085602;28;20214;-49
2022/10/03 03:35:03;;;;;;;2.77;1.17;;;12.40;99.90;;;;;;5091473;28;20794;-48
2022/10/03 03:37:37;;;;;;;1.10;1.00;;;12.40;99.90;;;;;;5086983;28;20565;-48
2022/10/03 03:40:28;;;;;;;2.30;0.90;;;12.50;99.90;;;;;;5082394;28;20234;-49
2022/10/03 03:43:27;;;;;;;1.90;0.90;;;12.50;99.90;;;;;;5080409;28;20197;-49
2022/10/03 03:46:06;;;;;;;0.83;0.83;;;12.40;99.90;;;;;;5085154;28;20203;-49
2022/10/03 03:49:08;;;;;;;0.77;0.70;;;12.40;99.90;;;;;;5090542;28;20231;-48
2022/10/03 03:51:45;;;;;;;0.63;0.63;;;12.40;99.90;;;;;;5075729;28;20210;-49
2022/10/03 03:54:31;;;;;;;0.80;0.80;;;12.40;99.90;;;;;;5083930;28;20214;-49
2022/10/03 03:57:13;;;;;;;0.77;0.77;;;12.40;99.90;;;;;;5087092;28;20210;-49
2022/10/03 03:59:58;;;;;;;1.17;1.13;;;12.40;99.90;;;;;;5082813;28;20226;-49
2022/10/03 04:02:39;;;;;;;1.00;1.00;;;12.40;99.90;;;;;;5093712;28;20200;-48
2022/10/03 04:05:19;;;;;;;1.43;0.90;;;12.50;99.90;;;;;;5082226;28;20207;-49
2022/10/03 04:08:10;;;;;;;1.90;0.83;;;12.40;99.90;;;;;;5091539;28;20196;-49
2022/10/03 04:10:48;;;;;;;1.33;1.13;;;12.40;99.90;;;;;;5093454;28;20722;-48
2022/10/03 04:13:37;;;;;;;1.63;1.10;;;12.30;99.90;;;;;;5090799;28;20223;-48
2022/10/03 04:18:56;;;;;;;0.77;0.77;;;12.40;99.90;;;;;;5085792;28;20219;-49
2022/10/03 04:19:18;;;;;;;1.33;0.77;;;12.50;99.90;;;;;;5090503;28;20625;-49
2022/10/03 04:22:10;;;;;;;0.60;0.60;;;12.40;99.90;;;;;;5093382;28;20249;-48
2022/10/03 04:25:04;;;;;;;1.43;0.73;;;12.50;99.90;;;;;;5092901;28;20293;-49
2022/10/03 04:28:02;;;;;;;1.67;0.90;;;12.50;99.90;;;;;;5086601;28;20281;-49
2022/10/03 04:30:44;;;;;;;6.03;1.10;;;12.50;99.90;;;;;;5085512;28;20631;-48
2022/10/03 04:33:27;;;;;;;1.60;0.93;;;12.40;99.90;;;;;;5086436;28;20242;-48
2022/10/03 04:36:24;;;;;;;1.00;1.00;;;12.40;99.90;;;;;;5087136;28;20230;-48
2022/10/03 04:39:05;;;;;;;1.03;0.90;;;12.40;99.90;;;;;;5086625;28;20610;-48
2022/10/03 04:41:42;;;;;;;0.77;0.77;;;12.50;99.90;;;;;;5093194;28;20227;-48
2022/10/03 04:44:21;;;;;;;0.93;0.93;;;12.50;99.90;;;;;;5092628;28;20196;-48
2022/10/03 04:46:56;;;;;;;1.27;1.17;;;12.50;99.90;;;;;;5082501;28;20211;-48
2022/10/03 04:49:31;;;;;;;2.00;1.30;;;12.40;99.90;;;;;;5079863;28;20230;-49
2022/10/03 04:52:03;;;;;;;2.00;0.80;;;12.50;99.90;;;;;;5092053;28;20223;-48
2022/10/03 04:54:47;;;;;;;1.20;1.10;;;12.40;99.90;;;;;;5083476;28;20595;-49
2022/10/03 04:57:24;;;;;;;1.27;1.17;;;12.40;99.90;;;;;;5079844;28;20200;-48
2022/10/03 04:59:58;;;;;;;1.47;1.07;;;12.40;99.90;;;;;;5084201;28;20265;-48
2022/10/03 05:02:34;;;;;;;2.13;0.90;;;12.40;99.90;;;;;;5081913;28;20206;-50
2022/10/03 05:05:19;;;;;;;0.97;0.97;;;12.30;99.90;;;;;;5090948;28;20204;-49
2022/10/03 05:07:53;;;;;;;1.73;1.03;;;12.30;99.90;;;;;;5072109;28;20688;-48
2022/10/03 05:10:51;;;;;;;0.80;0.80;;;12.30;99.90;;;;;;5072077;28;20227;-49
2022/10/03 05:13:29;;;;;;;1.37;1.27;;;12.30;99.90;;;;;;5088578;28;20223;-48
2022/10/03 05:16:03;;;;;;;1.40;1.00;;;12.30;99.90;;;;;;5091586;28;21699;-49
2022/10/03 05:18:43;;;;;;;0.90;0.90;;;12.30;99.90;;;;;;5088098;28;20207;-48
2022/10/03 05:21:15;;;;;;;3.53;1.27;;;12.30;99.90;;;;;;5084060;28;20713;-48
2022/10/03 05:23:52;;;;;;;1.13;1.13;;;12.30;99.90;;;;;;5083454;28;20224;-48
2022/10/03 05:26:27;;;;;;;1.87;1.20;;;12.30;99.90;;;;;;5083079;28;20214;-49
2022/10/03 05:29:02;;;;;;;1.43;1.43;;;12.30;99.90;;;;;;5085781;28;20223;-49
2022/10/03 05:31:38;;;;;;;2.40;2.30;;;12.30;99.90;;;;;;5084054;28;20198;-48
2022/10/03 05:34:21;;;;;;;2.67;1.70;;;12.30;99.90;;;;;;5071891;28;20715;-48
2022/10/03 05:37:20;;;;;;;1.50;1.40;;;12.30;99.90;;;;;;5083598;28;20292;-49
2022/10/03 05:39:57;;;;;;;2.83;2.30;;;12.30;99.90;;;;;;5076147;28;20231;-50
2022/10/03 05:42:38;;;;;;;2.47;2.20;;;12.30;99.90;;;;;;5090297;28;20294;-48
2022/10/03 05:45:22;;;;;;;3.40;2.37;;;12.20;99.90;;;;;;5076743;28;20263;-48
2022/10/03 05:47:54;;;;;;;3.10;2.40;;;12.20;99.90;;;;;;5077265;28;20211;-48
2022/10/03 05:51:12;;;;;;;2.73;2.20;;;12.30;99.90;;;;;;5085611;28;20218;-48
2022/10/03 05:54:20;;;;;;;5.17;2.70;;;12.30;99.90;;;;;;5087721;28;20303;-48
2022/10/03 05:57:10;;;;;;;2.53;2.43;;;12.30;99.90;;;;;;5086683;28;20200;-48
2022/10/03 06:00:03;;;;;;;2.73;2.60;;;12.30;99.90;;;;;;5075094;28;21002;-49
2022/10/03 06:03:04;;;;;;;3.53;3.30;;;12.40;99.90;;;;;;5089821;28;20203;-49
2022/10/03 06:05:37;;;;;;;2.03;1.83;;;12.40;99.90;;;;;;5071132;28;20783;-48
2022/10/03 06:08:45;;;;;;;2.90;2.50;;;12.50;99.90;;;;;;5083271;28;20199;-48
2022/10/03 06:11:27;;;;;;;1.80;1.70;;;12.60;99.90;;;;;;5089404;28;20719;-49
2022/10/03 06:14:27;;;;;;;1.63;1.63;;;12.60;99.90;;;;;;5088566;28;20284;-48
2022/10/03 06:17:04;;;;;;;1.80;1.77;;;12.70;99.90;;;;;;5092067;28;20228;-49
2022/10/03 06:19:45;;;;;;;3.15;2.35;;;12.80;99.90;;;;;;5090919;28;20444;-49
2022/10/03 06:22:47;;;;;;;3.20;2.63;;;12.80;99.90;;;;;;5084846;28;20204;-49
2022/10/03 06:25:35;;;;;;;2.87;2.67;;;12.80;99.90;;;;;;5082591;28;20252;-49
2022/10/03 06:28:27;;;;;;;5.27;3.13;;;12.90;99.90;;;;;;5095116;28;20252;-49
2022/10/03 06:31:13;;;;;;;2.20;2.10;;;13.00;99.90;;;;;;5085052;28;20226;-48
2022/10/03 06:34:16;;;;;;;2.20;2.10;;;13.10;99.90;;;;;;5092012;28;20278;-49
2022/10/03 06:37:18;;;;;;;2.33;2.23;;;13.20;99.90;;;;;;5067299;28;20677;-49
2022/10/03 06:40:30;;;;;;;2.57;2.40;;;13.30;99.90;;;;;;5079284;28;20284;-48
2022/10/03 06:43:32;;;;;;;2.50;2.00;;;13.30;99.90;;;;;;5094966;28;20610;-49
2022/10/03 06:46:31;;;;;;;4.73;2.60;;;13.50;99.90;;;;;;5087594;28;20264;-49
2022/10/03 06:49:32;;;;;;;2.40;2.03;;;13.60;99.90;;;;;;5067773;28;20270;-48
2022/10/03 06:52:14;;;;;;;3.27;2.67;;;13.70;99.90;;;;;;5094271;28;20280;-48
2022/10/03 06:55:18;;;;;;;1.93;1.67;;;13.90;99.90;;;;;;5094792;28;20224;-49
2022/10/03 06:58:15;;;;;;;1.70;1.23;;;14.00;99.90;;;;;;5094854;28;20746;-49
2022/10/03 07:00:55;;;;;;;1.40;1.30;;;14.10;99.90;;;;;;5087893;28;20275;-48
2022/10/03 07:03:50;;;;;;;2.60;1.20;;;14.10;99.90;;;;;;5094652;28;20470;-49
2022/10/03 07:06:42;;;;;;;2.77;2.07;;;14.10;99.90;;;;;;5078217;28;20216;-49
2022/10/03 07:09:54;;;;;;;7.43;1.63;;;14.10;99.90;;;;;;5094945;28;20255;-48
2022/10/03 07:13:07;;;;;;;1.50;1.40;;;14.10;99.90;;;;;;5094858;28;20254;-49
2022/10/03 07:16:13;;;;;;;3.03;1.63;;;14.10;99.90;;;;;;5090462;28;20249;-49
2022/10/03 07:19:21;;;;;;;1.80;1.67;;;14.10;99.90;;;;;;5058615;28;20649;-49
2022/10/03 07:22:17;;;;;;;3.23;1.87;;;14.00;99.90;;;;;;5081824;28;20215;-50
2022/10/03 07:25:19;;;;;;;7.00;3.13;;;14.00;99.90;;;;;;5093439;28;20192;-48
2022/10/03 07:28:05;;;;;;;3.50;3.13;;;13.90;99.90;;;;;;5091784;28;20261;-48
2022/10/03 07:30:52;;;;;;;3.83;2.03;;;13.90;99.90;;;;;;5094241;28;20296;-48
2022/10/03 07:33:46;;;;;;;6.67;2.73;;;13.90;99.90;;;;;;5092714;28;20193;-48
2022/10/03 07:39:55;;;;;;;3.00;2.30;;;14.20;99.90;;;;;;5074485;28;20240;-48
2022/10/03 07:42:50;;;;;;;4.00;2.93;;;14.20;99.90;;;;;;5074049;28;20200;-49
2022/10/03 07:45:40;;;;;;;3.40;2.27;;;14.40;99.90;;;;;;5073073;28;20193;-48
2022/10/03 07:48:28;;;;;;;4.27;2.63;;;14.50;99.90;;;;;;5083555;28;20208;-49
2022/10/03 07:51:13;;;;;;;3.43;2.80;;;14.60;99.90;;;;;;5093917;28;20282;-49
2022/10/03 07:54:20;;;;;;;3.97;2.77;;;14.50;99.90;;;;;;5093584;28;20312;-48
2022/10/03 07:57:20;;;;;;;4.13;2.47;;;14.40;99.90;;;;;;5080285;28;20214;-48
2022/10/03 08:00:15;;;;;;;3.93;2.53;;;14.20;99.90;;;;;;5073472;28;20217;-48
2022/10/03 08:03:24;;;;;;;2.50;2.27;;;14.20;99.90;;;;;;5074671;28;20212;-49
2022/10/03 08:06:14;;;;;;;3.27;2.60;;;14.20;99.90;;;;;;5068969;28;20201;-48
2022/10/03 08:09:29;;;;;;;6.10;2.97;;;14.40;99.90;;;;;;5093319;28;20204;-50
2022/10/03 08:12:34;;;;;;;3.30;3.10;;;14.50;99.90;;;;;;5093555;28;20261;-49
2022/10/03 08:15:10;;;;;;;2.93;2.73;;;14.60;99.90;;;;;;5072709;28;20282;-49
2022/10/03 08:18:05;;;;;;;2.13;2.03;;;14.60;99.90;;;;;;5073079;28;20681;-48
2022/10/03 08:20:56;;;;;;;3.60;3.07;;;14.60;99.90;;;;;;5081147;28;20218;-49
2022/10/03 08:24:14;;;;;;;2.50;2.30;;;14.60;99.90;;;;;;5077473;28;20193;-49
2022/10/03 08:26:55;;;;;;;4.67;2.73;;;14.70;99.90;;;;;;5067340;28;20230;-48
2022/10/03 08:29:34;;;;;;;3.90;2.93;;;14.70;99.90;;;;;;5091396;28;20781;-49
2022/10/03 08:32:37;;;;;;;2.60;2.40;;;14.80;99.90;;;;;;5072838;28;20205;-48
2022/10/03 08:35:37;;;;;;;2.77;2.20;;;15.00;99.90;;;;;;5058896;28;20289;-48
2022/10/03 08:38:35;;;;;;;4.00;2.20;;;15.40;99.90;;;;;;5071883;28;20284;-49
2022/10/03 08:41:39;;;;;;;2.13;2.03;;;16.10;99.90;;;;;;5092985;28;20208;-48
2022/10/03 08:44:43;;;;;;;5.20;2.47;;;17.40;99.90;;;;;;5080621;28;20247;-49
2022/10/03 08:47:46;;;;;;;1.97;1.87;;;18.10;99.90;;;;;;5080951;28;20261;-49
2022/10/03 08:50:40;;;;;;;2.80;1.50;;;18.80;99.90;;;;;;5092835;28;20807;-49
2022/10/03 08:53:43;;;;;;;1.50;1.40;;;19.00;99.90;;;;;;5084502;28;20762;-50
2022/10/03 08:56:14;;;;;;;1.80;1.70;;;19.30;99.90;;;;;;5062191;28;20189;-49
2022/10/03 08:59:23;;;;;;;1.40;1.30;;;19.20;99.90;;;;;;5092779;28;20281;-49
2022/10/03 09:02:22;;;;;;;3.03;1.73;;;20.00;99.90;;;;;;5089951;28;20693;-48
2022/10/03 09:05:28;;;;;;;1.60;1.50;;;20.00;99.90;;;;;;5044677;28;20209;-49
2022/10/03 09:08:29;;;;;;;2.23;1.60;;;19.40;99.90;;;;;;5039595;28;20263;-49
2022/10/03 09:11:30;;;;;;;1.60;1.50;;;19.20;99.90;;;;;;5039358;28;20699;-49
2022/10/03 09:14:27;;;;;;;1.90;1.60;;;19.40;99.90;;;;;;5083044;28;20227;-49
2022/10/03 09:17:19;;;;;;;1.63;1.53;;;19.80;99.90;;;;;;5091983;28;20201;-49
2022/10/03 09:20:15;;;;;;;4.03;1.27;;;20.50;99.90;;;;;;5092212;28;20233;-50
2022/10/03 09:23:03;;;;;;;2.60;1.37;;;21.50;99.90;;;;;;5073508;28;20639;-50
2022/10/03 09:25:58;;;;;;;2.23;1.60;;;22.00;99.90;;;;;;5092104;28;20184;-49
2022/10/03 09:28:58;;;;;;;1.43;1.30;;;22.10;99.90;;;;;;5080398;28;20196;-49
2022/10/03 09:31:55;;;;;;;1.70;1.60;;;21.60;99.90;;;;;;5090663;28;20546;-49
2022/10/03 09:34:54;;;;;;;1.80;1.70;;;21.20;99.90;;;;;;5078606;28;20364;-49
2022/10/03 09:37:51;;;;;;;1.67;1.20;;;20.90;99.90;;;;;;5085631;28;20201;-48
2022/10/03 09:40:50;;;;;;;1.20;0.93;;;20.70;99.90;;;;;;5077129;28;20631;-49
2022/10/03 09:43:58;;;;;;;1.10;1.00;;;21.00;99.90;;;;;;5085485;28;20208;-49
2022/10/03 09:50:12;;;;;;;1.27;1.03;;;21.00;99.90;;;;;;5071668;28;20224;-49
2022/10/03 09:53:04;;;;;;;0.73;0.73;;;21.50;99.90;;;;;;5071507;28;20205;-49
2022/10/03 09:55:51;;;;;;;0.73;0.73;;;21.20;99.90;;;;;;5081717;28;20217;-49
2022/10/03 09:58:45;;;;;;;3.30;0.90;;;21.50;99.90;;;;;;5085707;28;20279;-48
2022/10/03 10:01:24;;;;;;;0.83;0.70;;;22.10;99.90;;;;;;5091552;28;20200;-49
2022/10/03 10:04:30;;;;;;;0.70;0.60;;;22.00;99.90;;;;;;5091585;28;20269;-49
2022/10/03 10:07:37;;;;;;;0.60;0.60;;;21.40;99.90;;;;;;5074192;28;20208;-49
2022/10/03 10:10:35;;;;;;;2.00;0.60;;;20.50;99.90;;;;;;5088670;28;20220;-48
2022/10/03 10:13:16;;;;;;;0.67;0.60;;;21.10;99.90;;;;;;5083662;28;20250;-48
2022/10/03 10:16:22;;;;;;;4.43;0.80;;;21.70;99.90;;;;;;5091317;28;20597;-49
2022/10/03 10:19:19;;;;;;;1.43;0.90;;;22.10;99.90;;;;;;5075778;28;20639;-49
2022/10/03 10:22:15;;;;;;;0.50;0.50;;;22.00;99.90;;;;;;5091781;28;20613;-49
2022/10/03 10:25:17;;;;;;;0.70;0.70;;;22.30;99.90;;;;;;5086102;28;20193;-49
2022/10/03 10:28:20;;;;;;;0.80;0.80;;;22.60;99.90;;;;;;5090054;28;20561;-50
2022/10/03 10:31:31;;;;;;;0.83;0.60;;;22.20;99.90;;;;;;5074046;28;20778;-49
2022/10/03 10:34:15;;;;;;;0.57;0.40;;;22.10;99.90;;;;;;5062803;28;20200;-49
2022/10/03 10:37:31;;;;;;;0.60;0.40;;;21.90;99.90;;;;;;5091403;28;20254;-50
2022/10/03 10:40:25;;;;;;;0.60;0.40;;;20.80;99.90;;;;;;5091537;28;20279;-48
2022/10/03 10:43:35;;;;;;;1.10;0.50;;;19.90;99.90;;;;;;5091353;28;20200;-49
2022/10/03 10:46:32;;;;;;;0.30;0.30;;;19.10;99.90;;;;;;5079262;28;20193;-49
2022/10/03 10:49:57;;;;;;;1.70;0.50;;;18.50;99.90;;;;;;5091274;28;20790;-49
2022/10/03 10:53:04;;;;;;;0.47;0.47;;;18.50;99.90;;;;;;5028805;28;20215;-49
2022/10/03 10:56:06;;;;;;;0.40;0.30;;;18.50;99.90;;;;;;5091038;28;20711;-49
2022/10/03 10:59:10;;;;;;;0.97;0.90;;;18.60;99.90;;;;;;5091762;28;20618;-49
2022/10/03 11:02:21;;;;;;;0.50;0.50;;;18.50;99.90;;;;;;5067152;28;20215;-49
2022/10/03 11:05:28;;;;;;;0.40;0.40;;;18.30;99.90;;;;;;5086770;28;20205;-48
2022/10/03 11:08:49;;;;;;;1.17;0.50;;;18.00;99.90;;;;;;5085015;28;20204;-48
2022/10/03 11:11:47;;;;;;;0.30;0.30;;;17.80;99.90;;;;;;5080313;28;20204;-48
2022/10/03 11:15:03;;;;;;;0.40;0.40;;;18.10;99.90;;;;;;5079555;28;20250;-48
2022/10/03 11:18:06;;;;;;;0.43;0.40;;;18.20;99.90;;;;;;5077888;28;20196;-48
2022/10/03 11:21:23;;;;;;;1.70;0.50;;;18.10;99.90;;;;;;5085419;28;20220;-49
2022/10/03 11:24:40;;;;;;;1.17;0.60;;;18.40;99.90;;;;;;5045013;28;20271;-48
2022/10/03 11:27:40;;;;;;;0.30;0.30;;;18.40;99.90;;;;;;5083211;28;20196;-48
2022/10/03 11:30:35;;;;;;;0.73;0.43;;;18.30;99.90;;;;;;5073232;28;20259;-48
2022/10/03 11:33:50;;;;;;;0.50;0.40;;;17.90;99.90;;;;;;5089135;28;20249;-48
2022/10/03 11:36:57;;;;;;;0.93;0.50;;;17.70;99.90;;;;;;5087567;28;20217;-49
2022/10/03 11:39:34;;;;;;;1.60;0.30;;;17.80;99.90;;;;;;5078495;28;20245;-49
2022/10/03 11:42:06;;;;;;;0.27;0.27;;;18.10;99.90;;;;;;5085833;28;20196;-49
2022/10/03 11:44:35;;;;;;;2.00;0.40;;;18.10;99.90;;;;;;5088463;28;20611;-48
2022/10/03 11:47:40;;;;;;;2.60;0.30;;;18.10;99.90;;;;;;5085171;28;20201;-48
2022/10/03 11:50:44;;;;;;;1.70;0.30;;;18.10;99.90;;;;;;5062962;28;20224;-48
2022/10/03 11:53:36;;;;;;;0.40;0.30;;;17.90;99.90;;;;;;5084185;28;20208;-49
2022/10/03 11:56:22;;;;;;;0.20;0.20;;;17.90;99.90;;;;;;5073547;28;20217;-48
2022/10/03 11:59:19;;;;;;;0.30;0.30;;;17.70;99.90;;;;;;5086179;28;20204;-48
2022/10/03 12:02:02;;;;;;;0.30;0.30;;;17.50;99.90;;;;;;5087047;28;20219;-48
2022/10/03 12:04:39;;;;;;;0.43;0.33;;;17.10;99.90;;;;;;5093483;28;20250;-48
2022/10/03 12:10:08;;;;;;;1.67;0.87;;;16.90;99.90;;;;;;5106950;28;20228;-48
2022/10/03 12:12:42;;;;;;;1.17;0.40;;;17.00;99.90;;;;;;5093538;28;20265;-48
2022/10/03 12:15:24;;;;;;;0.70;0.50;;;16.90;99.90;;;;;;5092806;28;20232;-49
2022/10/03 12:18:01;;;;;;;1.07;0.47;;;16.90;99.90;;;;;;5084244;28;20262;-50
2022/10/03 12:20:39;;;;;;;1.77;0.80;;;17.00;99.90;;;;;;5093244;28;20231;-48
2022/10/03 12:23:21;;;;;;;0.50;0.40;;;17.20;99.90;;;;;;5093131;28;20204;-49
2022/10/03 12:25:53;;;;;;;0.93;0.47;;;17.50;99.90;;;;;;5093288;28;20735;-48
2022/10/03 12:28:25;;;;;;;1.30;0.63;;;17.60;99.90;;;;;;5078950;28;20296;-49
2022/10/03 12:30:55;;;;;;;0.47;0.40;;;17.50;99.90;;;;;;5072919;28;20718;-49
2022/10/03 12:33:45;;;;;;;0.33;0.30;;;17.40;99.90;;;;;;5071880;28;20360;-48
2022/10/03 12:36:15;;;;;;;0.83;0.30;;;17.30;99.90;;;;;;5087650;28;20216;-49
2022/10/03 12:39:18;;;;;;;0.30;0.30;;;17.30;99.90;;;;;;5088803;28;20274;-49
2022/10/03 12:42:04;;;;;;;0.67;0.30;;;17.30;99.90;;;;;;5090514;28;20231;-48
2022/10/03 12:44:44;;;;;;;0.27;0.27;;;17.30;99.90;;;;;;5084625;28;20232;-49
2022/10/03 12:47:26;;;;;;;0.80;0.40;;;17.20;99.90;;;;;;5072734;28;20205;-49
2022/10/03 12:49:58;;;;;;;0.40;0.40;;;17.30;99.90;;;;;;5072424;28;20282;-48
2022/10/03 12:52:29;;;;;;;1.20;0.40;;;17.30;99.90;;;;;;5088685;28;20207;-48
2022/10/03 12:55:15;;;;;;;0.33;0.33;;;17.50;99.90;;;;;;5092465;28;20204;-49
2022/10/03 12:57:52;;;;;;;2.20;1.37;;;17.50;99.90;;;;;;5072297;28;20201;-49
2022/10/03 13:00:23;;;;;;;0.50;0.50;;;17.50;99.90;;;;;;5072375;28;20220;-48
2022/10/03 13:03:18;;;;;;;1.37;0.57;;;17.40;99.90;;;;;;5072238;28;20240;-48
2022/10/03 13:06:08;;;;;;;0.40;0.37;;;17.30;99.90;;;;;;5065219;28;20201;-48
2022/10/03 13:08:48;;;;;;;1.60;0.47;;;17.40;99.90;;;;;;5070535;28;20198;-48
2022/10/03 13:11:28;;;;;;;0.30;0.30;;;17.40;99.90;;;;;;5090811;28;20250;-49
2022/10/03 13:14:25;;;;;;;0.93;0.60;;;17.40;99.90;;;;;;5092260;28;20192;-49
2022/10/03 13:17:01;;;;;;;2.07;0.40;;;17.50;99.90;;;;;;5086873;28;20216;-48
2022/10/03 13:19:33;;;;;;;0.43;0.43;;;17.50;99.90;;;;;;5091264;28;20778;-49
2022/10/03 13:22:14;;;;;;;0.50;0.50;;;17.40;99.90;;;;;;5091980;28;20253;-49
2022/10/03 13:24:46;;;;;;;1.03;0.50;;;17.30;99.90;;;;;;5088100;28;20297;-49
2022/10/03 13:27:34;;;;;;;0.87;0.40;;;17.40;99.90;;;;;;5091924;28;20192;-48
2022/10/03 13:30:12;;;;;;;0.30;0.30;;;17.50;99.90;;;;;;5092015;28;20216;-48
2022/10/03 13:32:42;;;;;;;0.53;0.30;;;17.50;99.90;;;;;;5092080;28;20207;-48
2022/10/03 13:38:58;;;;;;;0.50;0.50;;;17.50;99.90;;;;;;5071862;28;20681;-49
2022/10/03 13:41:48;;;;;;;1.33;0.70;;;17.60;99.90;;;;;;5071270;28;20201;-48
2022/10/03 13:44:17;;;;;;;0.30;0.30;;;17.80;99.90;;;;;;5085300;28;20238;-48
2022/10/03 13:46:52;;;;;;;0.60;0.60;;;17.80;99.90;;;;;;5092091;28;20207;-48
2022/10/03 13:49:30;;;;;;;0.50;0.47;;;17.60;99.90;;;;;;5091870;28;20771;-48
2022/10/03 13:52:01;;;;;;;0.30;0.30;;;17.50;99.90;;;;;;5088505;28;20212;-48
2022/10/03 13:55:00;;;;;;;1.90;0.37;;;17.50;99.90;;;;;;5087758;28;20291;-51
2022/10/03 13:57:33;;;;;;;0.70;0.50;;;17.50;99.90;;;;;;5080796;28;20217;-47
2022/10/03 14:00:08;;;;;;;0.73;0.40;;;17.50;99.90;;;;;;5085496;28;20315;-49
2022/10/03 14:02:58;;;;;;;0.53;0.53;;;17.50;99.90;;;;;;5082768;28;20238;-48
2022/10/03 14:05:50;;;;;;;1.70;0.43;;;17.40;99.90;;;;;;5083880;28;20266;-48
2022/10/03 14:08:39;;;;;;;0.50;0.50;;;17.20;99.90;;;;;;5081305;28;20196;-48
2022/10/03 14:11:23;;;;;;;0.83;0.60;;;17.20;99.90;;;;;;5078082;28;20659;-47
2022/10/03 14:14:09;;;;;;;0.50;0.50;;;17.20;99.90;;;;;;5090101;28;20625;-50
2022/10/03 14:16:41;;;;;;;1.47;0.60;;;17.10;99.90;;;;;;5088921;28;20246;-50
2022/10/03 14:19:19;;;;;;;1.03;0.50;;;17.00;99.90;;;;;;5090145;28;20212;-48
2022/10/03 14:22:07;;;;;;;0.40;0.40;;;17.00;99.90;;;;;;5077116;28;20666;-49
2022/10/03 14:24:50;;;;;;;3.00;0.97;;;17.00;99.90;;;;;;5091225;28;20250;-48
2022/10/03 14:27:42;;;;;;;0.70;0.70;;;17.00;99.90;;;;;;5085892;28;20853;-48
2022/10/03 14:30:14;;;;;;;0.57;0.57;;;17.00;99.90;;;;;;5091376;28;20714;-48
2022/10/03 14:32:52;;;;;;;0.90;0.50;;;17.00;99.90;;;;;;5091352;28;20616;-48
2022/10/03 14:35:36;;;;;;;0.63;0.40;;;16.90;99.90;;;;;;5083056;28;20201;-48
2022/10/03 14:41:25;;;;;;;0.80;0.80;;;16.80;99.90;;;;;;5086024;28;20193;-49
2022/10/03 14:43:54;;;;;;;0.57;0.57;;;16.90;99.90;;;;;;5087486;28;20288;-49
2022/10/03 14:46:27;;;;;;;0.80;0.80;;;16.90;99.90;;;;;;5095039;28;20200;-48
2022/10/03 14:48:58;;;;;;;1.67;0.60;;;16.90;99.90;;;;;;5085187;28;20262;-48
2022/10/03 14:51:31;;;;;;;1.47;0.80;;;16.90;99.90;;;;;;5074199;28;20291;-48
2022/10/03 14:54:04;;;;;;;1.57;1.13;;;16.90;99.90;;;;;;5085449;28;20200;-48